sensor_id;sensor_type;location;lat;lon;timestamp;P1;durP1;ratioP1;P2;durP2;ratioP2
4555;SDS011;2290;48.674;9.018;2022-09-09T00:04:18;2.00;;;1.40;;
4555;SDS011;2290;48.674;9.018;2022-09-09T00:15:38;1.37;;;1.20;;
4555;SDS011;2290;48.674;9.018;2022-09-09T00:18:40;1.30;;;1.10;;
4555;SDS011;2290;48.674;9.018;2022-09-09T00:21:27;6.13;;;1.53;;
4555;SDS011;2290;48.674;9.018;2022-09-09T00:23:59;1.50;;;1.20;;
4555;SDS011;2290;48.674;9.018;2022-09-09T00:26:51;3.20;;;1.17;;
4555;SDS011;2290;48.674;9.018;2022-09-09T00:29:35;2.27;;;1.27;;
4555;SDS011;2290;48.674;9.018;2022-09-09T00:32:24;1.63;;;1.20;;
4555;SDS011;2290;48.674;9.018;2022-09-09T00:34:55;1.50;;;1.10;;
4555;SDS011;2290;48.674;9.018;2022-09-09T00:37:26;1.30;;;1.10;;
4555;SDS011;2290;48.674;9.018;2022-09-09T00:39:53;3.73;;;1.30;;
4555;SDS011;2290;48.674;9.018;2022-09-09T00:42:25;2.90;;;1.23;;
4555;SDS011;2290;48.674;9.018;2022-09-09T00:44:59;2.17;;;1.20;;
4555;SDS011;2290;48.674;9.018;2022-09-09T00:47:46;1.40;;;1.10;;
4555;SDS011;2290;48.674;9.018;2022-09-09T00:53:05;1.10;;;1.00;;
4555;SDS011;2290;48.674;9.018;2022-09-09T00:58:13;1.20;;;1.10;;
4555;SDS011;2290;48.674;9.018;2022-09-09T01:00:43;1.10;;;1.00;;
4555;SDS011;2290;48.674;9.018;2022-09-09T01:03:19;1.40;;;1.10;;
4555;SDS011;2290;48.674;9.018;2022-09-09T01:11:22;2.83;;;1.17;;
4555;SDS011;2290;48.674;9.018;2022-09-09T01:14:43;3.20;;;1.50;;
4555;SDS011;2290;48.674;9.018;2022-09-09T01:16:50;2.23;;;1.50;;
4555;SDS011;2290;48.674;9.018;2022-09-09T01:19:26;2.20;;;1.20;;
4555;SDS011;2290;48.674;9.018;2022-09-09T01:25:11;2.13;;;1.10;;
4555;SDS011;2290;48.674;9.018;2022-09-09T01:27:54;1.73;;;1.20;;
4555;SDS011;2290;48.674;9.018;2022-09-09T01:30:24;1.30;;;1.20;;
4555;SDS011;2290;48.674;9.018;2022-09-09T01:32:53;3.77;;;1.50;;
4555;SDS011;2290;48.674;9.018;2022-09-09T01:37:49;1.47;;;1.20;;
4555;SDS011;2290;48.674;9.018;2022-09-09T01:40:16;1.73;;;1.43;;
4555;SDS011;2290;48.674;9.018;2022-09-09T01:42:41;1.17;;;0.97;;
4555;SDS011;2290;48.674;9.018;2022-09-09T01:45:07;1.27;;;1.10;;
4555;SDS011;2290;48.674;9.018;2022-09-09T01:47:33;1.40;;;1.07;;
4555;SDS011;2290;48.674;9.018;2022-09-09T01:50:00;1.43;;;1.17;;
4555;SDS011;2290;48.674;9.018;2022-09-09T01:52:27;1.50;;;1.37;;
4555;SDS011;2290;48.674;9.018;2022-09-09T01:54:54;1.20;;;1.10;;
4555;SDS011;2290;48.674;9.018;2022-09-09T01:57:27;1.40;;;1.00;;
4555;SDS011;2290;48.674;9.018;2022-09-09T02:05:35;1.90;;;1.20;;
4555;SDS011;2290;48.674;9.018;2022-09-09T02:08:05;2.10;;;1.40;;
4555;SDS011;2290;48.674;9.018;2022-09-09T02:10:39;1.30;;;1.10;;
4555;SDS011;2290;48.674;9.018;2022-09-09T02:13:15;1.83;;;1.40;;
4555;SDS011;2290;48.674;9.018;2022-09-09T02:15:50;1.73;;;1.20;;
4555;SDS011;2290;48.674;9.018;2022-09-09T02:18:43;1.93;;;1.40;;
4555;SDS011;2290;48.674;9.018;2022-09-09T02:21:26;3.50;;;1.20;;
4555;SDS011;2290;48.674;9.018;2022-09-09T02:23:53;1.43;;;1.30;;
4555;SDS011;2290;48.674;9.018;2022-09-09T02:26:24;1.37;;;1.20;;
4555;SDS011;2290;48.674;9.018;2022-09-09T02:28:51;1.83;;;1.40;;
4555;SDS011;2290;48.674;9.018;2022-09-09T02:31:22;1.77;;;1.23;;
4555;SDS011;2290;48.674;9.018;2022-09-09T02:33:54;1.30;;;1.20;;
4555;SDS011;2290;48.674;9.018;2022-09-09T02:36:23;1.23;;;1.13;;
4555;SDS011;2290;48.674;9.018;2022-09-09T02:38:51;2.30;;;1.10;;
4555;SDS011;2290;48.674;9.018;2022-09-09T02:41:37;1.30;;;1.20;;
4555;SDS011;2290;48.674;9.018;2022-09-09T02:44:08;2.70;;;1.10;;
4555;SDS011;2290;48.674;9.018;2022-09-09T02:46:42;1.10;;;0.93;;
4555;SDS011;2290;48.674;9.018;2022-09-09T02:49:25;1.20;;;1.00;;
4555;SDS011;2290;48.674;9.018;2022-09-09T02:52:01;1.10;;;1.00;;
4555;SDS011;2290;48.674;9.018;2022-09-09T02:54:32;1.20;;;1.00;;
4555;SDS011;2290;48.674;9.018;2022-09-09T02:57:05;1.80;;;1.10;;
4555;SDS011;2290;48.674;9.018;2022-09-09T02:59:36;2.67;;;1.57;;
4555;SDS011;2290;48.674;9.018;2022-09-09T03:02:03;1.30;;;1.20;;
4555;SDS011;2290;48.674;9.018;2022-09-09T03:04:29;1.73;;;1.00;;
4555;SDS011;2290;48.674;9.018;2022-09-09T03:06:56;1.30;;;1.20;;
4555;SDS011;2290;48.674;9.018;2022-09-09T03:09:24;1.77;;;1.10;;
4555;SDS011;2290;48.674;9.018;2022-09-09T03:11:52;1.13;;;1.00;;
4555;SDS011;2290;48.674;9.018;2022-09-09T03:14:19;1.30;;;1.17;;
4555;SDS011;2290;48.674;9.018;2022-09-09T03:16:46;1.63;;;1.37;;
4555;SDS011;2290;48.674;9.018;2022-09-09T03:19:13;1.93;;;1.10;;
4555;SDS011;2290;48.674;9.018;2022-09-09T03:21:38;1.27;;;1.17;;
4555;SDS011;2290;48.674;9.018;2022-09-09T03:24:04;1.27;;;1.10;;
4555;SDS011;2290;48.674;9.018;2022-09-09T03:26:31;1.40;;;1.30;;
4555;SDS011;2290;48.674;9.018;2022-09-09T03:28:57;1.10;;;1.00;;
4555;SDS011;2290;48.674;9.018;2022-09-09T03:31:25;1.10;;;0.90;;
4555;SDS011;2290;48.674;9.018;2022-09-09T03:33:56;2.50;;;1.80;;
4555;SDS011;2290;48.674;9.018;2022-09-09T03:36:23;1.63;;;1.10;;
4555;SDS011;2290;48.674;9.018;2022-09-09T03:38:49;2.20;;;1.13;;
4555;SDS011;2290;48.674;9.018;2022-09-09T03:41:16;2.10;;;1.20;;
4555;SDS011;2290;48.674;9.018;2022-09-09T03:43:42;1.20;;;1.07;;
4555;SDS011;2290;48.674;9.018;2022-09-09T03:46:07;1.10;;;1.00;;
4555;SDS011;2290;48.674;9.018;2022-09-09T03:48:33;1.30;;;1.00;;
4555;SDS011;2290;48.674;9.018;2022-09-09T03:50:58;1.93;;;1.13;;
4555;SDS011;2290;48.674;9.018;2022-09-09T03:53:26;1.97;;;1.40;;
4555;SDS011;2290;48.674;9.018;2022-09-09T03:55:53;1.77;;;1.10;;
4555;SDS011;2290;48.674;9.018;2022-09-09T03:58:20;2.90;;;1.40;;
4555;SDS011;2290;48.674;9.018;2022-09-09T04:00:55;1.10;;;1.00;;
4555;SDS011;2290;48.674;9.018;2022-09-09T04:03:23;2.00;;;1.10;;
4555;SDS011;2290;48.674;9.018;2022-09-09T04:05:50;1.50;;;1.20;;
4555;SDS011;2290;48.674;9.018;2022-09-09T04:08:19;1.73;;;1.27;;
4555;SDS011;2290;48.674;9.018;2022-09-09T04:10:46;1.97;;;1.30;;
4555;SDS011;2290;48.674;9.018;2022-09-09T04:13:15;1.80;;;1.20;;
4555;SDS011;2290;48.674;9.018;2022-09-09T04:15:43;3.27;;;1.50;;
4555;SDS011;2290;48.674;9.018;2022-09-09T04:18:15;2.50;;;1.40;;
4555;SDS011;2290;48.674;9.018;2022-09-09T04:20:40;2.23;;;1.20;;
4555;SDS011;2290;48.674;9.018;2022-09-09T04:23:08;1.30;;;1.10;;
4555;SDS011;2290;48.674;9.018;2022-09-09T04:25:33;1.50;;;1.40;;
4555;SDS011;2290;48.674;9.018;2022-09-09T04:27:59;1.53;;;1.00;;
4555;SDS011;2290;48.674;9.018;2022-09-09T04:30:25;1.30;;;1.20;;
4555;SDS011;2290;48.674;9.018;2022-09-09T04:32:53;4.17;;;1.27;;
4555;SDS011;2290;48.674;9.018;2022-09-09T04:35:19;1.53;;;1.23;;
4555;SDS011;2290;48.674;9.018;2022-09-09T04:37:45;1.70;;;1.30;;
4555;SDS011;2290;48.674;9.018;2022-09-09T04:40:10;4.67;;;1.50;;
4555;SDS011;2290;48.674;9.018;2022-09-09T04:42:36;1.40;;;1.10;;
4555;SDS011;2290;48.674;9.018;2022-09-09T04:45:02;1.53;;;1.30;;
4555;SDS011;2290;48.674;9.018;2022-09-09T04:47:28;1.67;;;1.37;;
4555;SDS011;2290;48.674;9.018;2022-09-09T04:49:53;1.37;;;1.27;;
4555;SDS011;2290;48.674;9.018;2022-09-09T04:52:19;2.57;;;1.30;;
4555;SDS011;2290;48.674;9.018;2022-09-09T04:54:45;1.43;;;1.30;;
4555;SDS011;2290;48.674;9.018;2022-09-09T04:57:11;1.80;;;1.30;;
4555;SDS011;2290;48.674;9.018;2022-09-09T04:59:37;1.30;;;1.00;;
4555;SDS011;2290;48.674;9.018;2022-09-09T05:02:04;1.40;;;1.23;;
4555;SDS011;2290;48.674;9.018;2022-09-09T05:04:30;1.97;;;1.17;;
4555;SDS011;2290;48.674;9.018;2022-09-09T05:06:56;2.53;;;1.60;;
4555;SDS011;2290;48.674;9.018;2022-09-09T05:09:21;2.20;;;1.37;;
4555;SDS011;2290;48.674;9.018;2022-09-09T05:11:47;1.73;;;1.47;;
4555;SDS011;2290;48.674;9.018;2022-09-09T05:14:12;2.30;;;1.50;;
4555;SDS011;2290;48.674;9.018;2022-09-09T05:16:39;1.43;;;1.33;;
4555;SDS011;2290;48.674;9.018;2022-09-09T05:19:05;1.73;;;1.40;;
4555;SDS011;2290;48.674;9.018;2022-09-09T05:21:33;2.00;;;1.20;;
4555;SDS011;2290;48.674;9.018;2022-09-09T05:23:59;1.30;;;1.20;;
4555;SDS011;2290;48.674;9.018;2022-09-09T05:26:25;3.67;;;1.40;;
4555;SDS011;2290;48.674;9.018;2022-09-09T05:28:51;1.30;;;1.20;;
4555;SDS011;2290;48.674;9.018;2022-09-09T05:31:17;1.67;;;1.47;;
4555;SDS011;2290;48.674;9.018;2022-09-09T05:33:44;1.57;;;1.33;;
4555;SDS011;2290;48.674;9.018;2022-09-09T05:36:11;1.37;;;1.10;;
4555;SDS011;2290;48.674;9.018;2022-09-09T05:38:39;1.63;;;1.20;;
4555;SDS011;2290;48.674;9.018;2022-09-09T05:41:05;3.37;;;1.27;;
4555;SDS011;2290;48.674;9.018;2022-09-09T05:43:32;9.47;;;1.27;;
4555;SDS011;2290;48.674;9.018;2022-09-09T05:45:59;1.47;;;1.27;;
4555;SDS011;2290;48.674;9.018;2022-09-09T05:48:29;2.60;;;1.37;;
4555;SDS011;2290;48.674;9.018;2022-09-09T05:50:56;1.30;;;1.10;;
4555;SDS011;2290;48.674;9.018;2022-09-09T05:53:22;1.80;;;1.40;;
4555;SDS011;2290;48.674;9.018;2022-09-09T05:55:47;1.90;;;1.53;;
4555;SDS011;2290;48.674;9.018;2022-09-09T05:58:13;1.67;;;1.27;;
4555;SDS011;2290;48.674;9.018;2022-09-09T06:00:41;2.17;;;1.40;;
4555;SDS011;2290;48.674;9.018;2022-09-09T06:03:10;1.87;;;1.20;;
4555;SDS011;2290;48.674;9.018;2022-09-09T06:05:36;2.07;;;1.53;;
4555;SDS011;2290;48.674;9.018;2022-09-09T06:08:02;1.83;;;1.20;;
4555;SDS011;2290;48.674;9.018;2022-09-09T06:10:28;2.40;;;1.27;;
4555;SDS011;2290;48.674;9.018;2022-09-09T06:12:53;3.07;;;1.27;;
4555;SDS011;2290;48.674;9.018;2022-09-09T06:15:19;1.40;;;1.30;;
4555;SDS011;2290;48.674;9.018;2022-09-09T06:17:45;3.20;;;1.40;;
4555;SDS011;2290;48.674;9.018;2022-09-09T06:20:10;1.50;;;1.40;;
4555;SDS011;2290;48.674;9.018;2022-09-09T06:22:38;2.33;;;1.27;;
4555;SDS011;2290;48.674;9.018;2022-09-09T06:25:05;3.23;;;1.30;;
4555;SDS011;2290;48.674;9.018;2022-09-09T06:27:32;1.40;;;1.23;;
4555;SDS011;2290;48.674;9.018;2022-09-09T06:29:58;1.40;;;1.20;;
4555;SDS011;2290;48.674;9.018;2022-09-09T06:32:23;1.23;;;1.10;;
4555;SDS011;2290;48.674;9.018;2022-09-09T06:34:51;4.20;;;1.47;;
4555;SDS011;2290;48.674;9.018;2022-09-09T06:37:16;1.83;;;1.20;;
4555;SDS011;2290;48.674;9.018;2022-09-09T06:39:42;2.37;;;1.30;;
4555;SDS011;2290;48.674;9.018;2022-09-09T06:42:07;1.60;;;1.40;;
4555;SDS011;2290;48.674;9.018;2022-09-09T06:44:33;1.73;;;1.30;;
4555;SDS011;2290;48.674;9.018;2022-09-09T06:46:59;2.70;;;1.30;;
4555;SDS011;2290;48.674;9.018;2022-09-09T06:49:25;2.10;;;1.23;;
4555;SDS011;2290;48.674;9.018;2022-09-09T06:51:50;1.33;;;1.20;;
4555;SDS011;2290;48.674;9.018;2022-09-09T06:54:17;1.63;;;1.30;;
4555;SDS011;2290;48.674;9.018;2022-09-09T06:56:43;1.33;;;1.20;;
4555;SDS011;2290;48.674;9.018;2022-09-09T06:59:10;1.57;;;1.10;;
4555;SDS011;2290;48.674;9.018;2022-09-09T07:01:40;1.83;;;1.60;;
4555;SDS011;2290;48.674;9.018;2022-09-09T07:04:08;2.27;;;1.40;;
4555;SDS011;2290;48.674;9.018;2022-09-09T07:06:36;1.33;;;1.20;;
4555;SDS011;2290;48.674;9.018;2022-09-09T07:09:09;2.30;;;1.20;;
4555;SDS011;2290;48.674;9.018;2022-09-09T07:11:37;1.50;;;1.40;;
4555;SDS011;2290;48.674;9.018;2022-09-09T07:14:06;2.40;;;1.00;;
4555;SDS011;2290;48.674;9.018;2022-09-09T07:16:33;3.30;;;1.30;;
4555;SDS011;2290;48.674;9.018;2022-09-09T07:19:02;1.50;;;1.30;;
4555;SDS011;2290;48.674;9.018;2022-09-09T07:21:29;2.93;;;1.57;;
4555;SDS011;2290;48.674;9.018;2022-09-09T07:23:55;2.20;;;1.30;;
4555;SDS011;2290;48.674;9.018;2022-09-09T07:26:22;1.50;;;1.40;;
4555;SDS011;2290;48.674;9.018;2022-09-09T07:28:50;1.83;;;1.20;;
4555;SDS011;2290;48.674;9.018;2022-09-09T07:31:17;2.20;;;1.40;;
4555;SDS011;2290;48.674;9.018;2022-09-09T07:33:45;1.30;;;1.20;;
4555;SDS011;2290;48.674;9.018;2022-09-09T07:38:46;2.00;;;1.40;;
4555;SDS011;2290;48.674;9.018;2022-09-09T07:41:17;2.60;;;1.40;;
4555;SDS011;2290;48.674;9.018;2022-09-09T07:43:46;1.40;;;1.30;;
4555;SDS011;2290;48.674;9.018;2022-09-09T07:46:13;2.37;;;1.10;;
4555;SDS011;2290;48.674;9.018;2022-09-09T07:48:44;9.50;;;1.60;;
4555;SDS011;2290;48.674;9.018;2022-09-09T07:51:11;1.73;;;1.30;;
4555;SDS011;2290;48.674;9.018;2022-09-09T07:53:42;1.30;;;1.20;;
4555;SDS011;2290;48.674;9.018;2022-09-09T07:56:09;3.90;;;1.20;;
4555;SDS011;2290;48.674;9.018;2022-09-09T07:58:36;2.73;;;1.33;;
4555;SDS011;2290;48.674;9.018;2022-09-09T08:01:10;1.90;;;1.40;;
4555;SDS011;2290;48.674;9.018;2022-09-09T08:03:37;1.90;;;1.30;;
4555;SDS011;2290;48.674;9.018;2022-09-09T08:06:04;2.37;;;1.40;;
4555;SDS011;2290;48.674;9.018;2022-09-09T08:08:33;1.93;;;1.30;;
4555;SDS011;2290;48.674;9.018;2022-09-09T08:11:07;1.17;;;1.07;;
4555;SDS011;2290;48.674;9.018;2022-09-09T08:13:37;1.33;;;1.20;;
4555;SDS011;2290;48.674;9.018;2022-09-09T08:16:08;2.83;;;1.50;;
4555;SDS011;2290;48.674;9.018;2022-09-09T08:18:39;5.13;;;1.40;;
4555;SDS011;2290;48.674;9.018;2022-09-09T08:21:08;1.80;;;1.30;;
4555;SDS011;2290;48.674;9.018;2022-09-09T08:23:39;1.47;;;1.23;;
4555;SDS011;2290;48.674;9.018;2022-09-09T08:26:13;2.33;;;1.60;;
4555;SDS011;2290;48.674;9.018;2022-09-09T08:28:40;1.43;;;1.20;;
4555;SDS011;2290;48.674;9.018;2022-09-09T08:31:13;2.57;;;1.40;;
4555;SDS011;2290;48.674;9.018;2022-09-09T08:33:41;1.20;;;1.10;;
4555;SDS011;2290;48.674;9.018;2022-09-09T08:36:10;1.30;;;1.20;;
4555;SDS011;2290;48.674;9.018;2022-09-09T08:38:40;2.80;;;1.20;;
4555;SDS011;2290;48.674;9.018;2022-09-09T08:41:41;1.20;;;1.10;;
4555;SDS011;2290;48.674;9.018;2022-09-09T08:44:49;1.93;;;1.40;;
4555;SDS011;2290;48.674;9.018;2022-09-09T08:47:16;2.93;;;1.20;;
4555;SDS011;2290;48.674;9.018;2022-09-09T08:52:54;1.30;;;1.10;;
4555;SDS011;2290;48.674;9.018;2022-09-09T09:00:47;2.63;;;1.10;;
4555;SDS011;2290;48.674;9.018;2022-09-09T09:08:37;1.77;;;1.20;;
4555;SDS011;2290;48.674;9.018;2022-09-09T09:11:11;3.67;;;1.00;;
4555;SDS011;2290;48.674;9.018;2022-09-09T09:13:45;1.70;;;1.30;;
4555;SDS011;2290;48.674;9.018;2022-09-09T09:16:34;2.43;;;1.20;;
4555;SDS011;2290;48.674;9.018;2022-09-09T09:19:17;1.47;;;1.10;;
4555;SDS011;2290;48.674;9.018;2022-09-09T09:21:44;1.40;;;1.10;;
4555;SDS011;2290;48.674;9.018;2022-09-09T09:24:20;1.80;;;1.40;;
4555;SDS011;2290;48.674;9.018;2022-09-09T09:26:51;1.97;;;1.00;;
4555;SDS011;2290;48.674;9.018;2022-09-09T09:29:18;3.00;;;1.20;;
4555;SDS011;2290;48.674;9.018;2022-09-09T09:32:02;1.10;;;1.00;;
4555;SDS011;2290;48.674;9.018;2022-09-09T09:34:28;1.57;;;1.17;;
4555;SDS011;2290;48.674;9.018;2022-09-09T09:36:55;1.60;;;1.30;;
4555;SDS011;2290;48.674;9.018;2022-09-09T09:39:29;3.33;;;1.90;;
4555;SDS011;2290;48.674;9.018;2022-09-09T09:42:09;1.43;;;1.33;;
4555;SDS011;2290;48.674;9.018;2022-09-09T09:44:39;3.00;;;1.17;;
4555;SDS011;2290;48.674;9.018;2022-09-09T09:47:18;1.57;;;1.40;;
4555;SDS011;2290;48.674;9.018;2022-09-09T09:49:53;2.07;;;1.27;;
4555;SDS011;2290;48.674;9.018;2022-09-09T09:52:22;4.40;;;1.60;;
4555;SDS011;2290;48.674;9.018;2022-09-09T09:54:50;2.50;;;1.17;;
4555;SDS011;2290;48.674;9.018;2022-09-09T09:57:17;5.00;;;1.57;;
4555;SDS011;2290;48.674;9.018;2022-09-09T09:59:43;2.23;;;1.70;;
4555;SDS011;2290;48.674;9.018;2022-09-09T10:04:59;1.70;;;1.27;;
4555;SDS011;2290;48.674;9.018;2022-09-09T10:07:29;1.70;;;1.40;;
4555;SDS011;2290;48.674;9.018;2022-09-09T10:09:55;2.63;;;1.30;;
4555;SDS011;2290;48.674;9.018;2022-09-09T10:18:22;1.93;;;1.43;;
4555;SDS011;2290;48.674;9.018;2022-09-09T10:21:20;3.93;;;1.50;;
4555;SDS011;2290;48.674;9.018;2022-09-09T10:29:13;2.80;;;1.40;;
4555;SDS011;2290;48.674;9.018;2022-09-09T10:31:53;3.63;;;1.60;;
4555;SDS011;2290;48.674;9.018;2022-09-09T10:34:55;1.87;;;1.30;;
4555;SDS011;2290;48.674;9.018;2022-09-09T10:42:55;3.20;;;1.30;;
4555;SDS011;2290;48.674;9.018;2022-09-09T10:45:32;2.43;;;1.50;;
4555;SDS011;2290;48.674;9.018;2022-09-09T10:48:19;2.60;;;1.47;;
4555;SDS011;2290;48.674;9.018;2022-09-09T10:51:19;3.63;;;1.60;;
4555;SDS011;2290;48.674;9.018;2022-09-09T10:56:54;3.73;;;1.20;;
4555;SDS011;2290;48.674;9.018;2022-09-09T10:59:24;3.17;;;1.27;;
4555;SDS011;2290;48.674;9.018;2022-09-09T11:01:59;1.63;;;1.20;;
4555;SDS011;2290;48.674;9.018;2022-09-09T11:04:41;1.57;;;1.20;;
4555;SDS011;2290;48.674;9.018;2022-09-09T11:07:14;1.63;;;1.10;;
4555;SDS011;2290;48.674;9.018;2022-09-09T11:09:50;1.97;;;1.30;;
4555;SDS011;2290;48.674;9.018;2022-09-09T11:12:22;1.33;;;1.00;;
4555;SDS011;2290;48.674;9.018;2022-09-09T11:14:51;1.63;;;1.10;;
4555;SDS011;2290;48.674;9.018;2022-09-09T11:17:24;1.43;;;1.10;;
4555;SDS011;2290;48.674;9.018;2022-09-09T11:19:53;1.83;;;1.10;;
4555;SDS011;2290;48.674;9.018;2022-09-09T11:22:26;1.63;;;1.20;;
4555;SDS011;2290;48.674;9.018;2022-09-09T11:24:58;1.47;;;0.90;;
4555;SDS011;2290;48.674;9.018;2022-09-09T11:27:27;1.00;;;0.80;;
4555;SDS011;2290;48.674;9.018;2022-09-09T11:35:30;1.63;;;0.90;;
4555;SDS011;2290;48.674;9.018;2022-09-09T11:40:41;0.90;;;0.80;;
4555;SDS011;2290;48.674;9.018;2022-09-09T11:43:24;1.23;;;0.80;;
4555;SDS011;2290;48.674;9.018;2022-09-09T11:45:54;1.93;;;1.00;;
4555;SDS011;2290;48.674;9.018;2022-09-09T11:48:40;1.10;;;0.80;;
4555;SDS011;2290;48.674;9.018;2022-09-09T11:56:27;1.30;;;0.90;;
4555;SDS011;2290;48.674;9.018;2022-09-09T12:01:27;1.40;;;0.70;;
4555;SDS011;2290;48.674;9.018;2022-09-09T12:04:14;0.90;;;0.80;;
4555;SDS011;2290;48.674;9.018;2022-09-09T12:06:50;0.90;;;0.70;;
4555;SDS011;2290;48.674;9.018;2022-09-09T12:09:22;2.00;;;1.10;;
4555;SDS011;2290;48.674;9.018;2022-09-09T12:14:42;0.97;;;0.80;;
4555;SDS011;2290;48.674;9.018;2022-09-09T12:17:27;0.90;;;0.73;;
4555;SDS011;2290;48.674;9.018;2022-09-09T12:23:18;3.30;;;1.23;;
4555;SDS011;2290;48.674;9.018;2022-09-09T12:36:46;2.20;;;0.80;;
4555;SDS011;2290;48.674;9.018;2022-09-09T12:39:25;1.93;;;1.10;;
4555;SDS011;2290;48.674;9.018;2022-09-09T12:41:58;1.50;;;0.87;;
4555;SDS011;2290;48.674;9.018;2022-09-09T12:44:24;2.37;;;1.00;;
4555;SDS011;2290;48.674;9.018;2022-09-09T12:46:53;1.30;;;1.10;;
4555;SDS011;2290;48.674;9.018;2022-09-09T12:52:03;1.40;;;0.93;;
4555;SDS011;2290;48.674;9.018;2022-09-09T12:54:33;1.00;;;0.83;;
4555;SDS011;2290;48.674;9.018;2022-09-09T12:57:01;1.53;;;0.93;;
4555;SDS011;2290;48.674;9.018;2022-09-09T12:59:34;1.50;;;0.90;;
4555;SDS011;2290;48.674;9.018;2022-09-09T13:02:21;1.13;;;0.80;;
4555;SDS011;2290;48.674;9.018;2022-09-09T13:04:49;1.00;;;0.80;;
4555;SDS011;2290;48.674;9.018;2022-09-09T13:07:16;3.47;;;0.93;;
4555;SDS011;2290;48.674;9.018;2022-09-09T13:09:43;0.90;;;0.77;;
4555;SDS011;2290;48.674;9.018;2022-09-09T13:12:14;1.27;;;0.80;;
4555;SDS011;2290;48.674;9.018;2022-09-09T13:14:44;3.43;;;1.17;;
4555;SDS011;2290;48.674;9.018;2022-09-09T13:17:26;1.37;;;0.90;;
4555;SDS011;2290;48.674;9.018;2022-09-09T13:19:54;1.10;;;0.80;;
4555;SDS011;2290;48.674;9.018;2022-09-09T13:22:34;1.40;;;0.90;;
4555;SDS011;2290;48.674;9.018;2022-09-09T13:27:40;0.90;;;0.80;;
4555;SDS011;2290;48.674;9.018;2022-09-09T13:30:27;1.43;;;0.90;;
4555;SDS011;2290;48.674;9.018;2022-09-09T13:35:29;1.10;;;0.80;;
4555;SDS011;2290;48.674;9.018;2022-09-09T13:37:56;1.63;;;1.00;;
4555;SDS011;2290;48.674;9.018;2022-09-09T13:40:23;1.73;;;1.23;;
4555;SDS011;2290;48.674;9.018;2022-09-09T13:42:56;2.07;;;1.10;;
4555;SDS011;2290;48.674;9.018;2022-09-09T13:45:24;1.00;;;0.80;;
4555;SDS011;2290;48.674;9.018;2022-09-09T13:47:54;1.07;;;0.80;;
4555;SDS011;2290;48.674;9.018;2022-09-09T13:50:27;1.10;;;0.80;;
4555;SDS011;2290;48.674;9.018;2022-09-09T13:52:55;2.37;;;1.00;;
4555;SDS011;2290;48.674;9.018;2022-09-09T13:55:24;1.23;;;1.00;;
4555;SDS011;2290;48.674;9.018;2022-09-09T13:57:55;1.10;;;0.80;;
4555;SDS011;2290;48.674;9.018;2022-09-09T14:00:23;1.20;;;0.80;;
4555;SDS011;2290;48.674;9.018;2022-09-09T14:02:50;1.10;;;0.80;;
4555;SDS011;2290;48.674;9.018;2022-09-09T14:05:16;5.40;;;1.30;;
4555;SDS011;2290;48.674;9.018;2022-09-09T14:07:43;1.40;;;0.80;;
4555;SDS011;2290;48.674;9.018;2022-09-09T14:10:10;1.20;;;0.80;;
4555;SDS011;2290;48.674;9.018;2022-09-09T14:12:36;1.33;;;1.07;;
4555;SDS011;2290;48.674;9.018;2022-09-09T14:15:03;1.10;;;0.80;;
4555;SDS011;2290;48.674;9.018;2022-09-09T14:17:30;1.00;;;0.80;;
4555;SDS011;2290;48.674;9.018;2022-09-09T14:19:57;0.90;;;0.80;;
4555;SDS011;2290;48.674;9.018;2022-09-09T14:22:22;1.33;;;0.90;;
4555;SDS011;2290;48.674;9.018;2022-09-09T14:24:49;1.53;;;0.83;;
4555;SDS011;2290;48.674;9.018;2022-09-09T14:27:15;2.03;;;0.73;;
4555;SDS011;2290;48.674;9.018;2022-09-09T14:29:41;1.33;;;0.80;;
4555;SDS011;2290;48.674;9.018;2022-09-09T14:32:08;1.83;;;1.00;;
4555;SDS011;2290;48.674;9.018;2022-09-09T14:34:34;1.20;;;0.90;;
4555;SDS011;2290;48.674;9.018;2022-09-09T14:37:00;1.10;;;0.90;;
4555;SDS011;2290;48.674;9.018;2022-09-09T14:39:25;1.00;;;0.80;;
4555;SDS011;2290;48.674;9.018;2022-09-09T14:41:51;1.87;;;0.90;;
4555;SDS011;2290;48.674;9.018;2022-09-09T14:44:17;2.13;;;1.00;;
4555;SDS011;2290;48.674;9.018;2022-09-09T14:46:43;1.20;;;0.90;;
4555;SDS011;2290;48.674;9.018;2022-09-09T14:49:08;1.67;;;0.90;;
4555;SDS011;2290;48.674;9.018;2022-09-09T14:51:35;1.63;;;1.00;;
4555;SDS011;2290;48.674;9.018;2022-09-09T14:54:01;0.97;;;0.80;;
4555;SDS011;2290;48.674;9.018;2022-09-09T14:56:28;1.20;;;0.90;;
4555;SDS011;2290;48.674;9.018;2022-09-09T14:58:57;2.30;;;0.90;;
4555;SDS011;2290;48.674;9.018;2022-09-09T15:01:24;1.20;;;0.80;;
4555;SDS011;2290;48.674;9.018;2022-09-09T15:03:57;2.20;;;1.10;;
4555;SDS011;2290;48.674;9.018;2022-09-09T15:06:28;5.70;;;1.10;;
4555;SDS011;2290;48.674;9.018;2022-09-09T15:08:55;1.20;;;0.83;;
4555;SDS011;2290;48.674;9.018;2022-09-09T15:11:23;1.80;;;1.00;;
4555;SDS011;2290;48.674;9.018;2022-09-09T15:13:50;1.77;;;0.80;;
4555;SDS011;2290;48.674;9.018;2022-09-09T15:16:18;2.67;;;1.10;;
4555;SDS011;2290;48.674;9.018;2022-09-09T15:18:44;1.20;;;0.80;;
4555;SDS011;2290;48.674;9.018;2022-09-09T15:21:11;2.97;;;1.00;;
4555;SDS011;2290;48.674;9.018;2022-09-09T15:23:38;1.20;;;0.90;;
4555;SDS011;2290;48.674;9.018;2022-09-09T15:26:04;1.30;;;0.90;;
4555;SDS011;2290;48.674;9.018;2022-09-09T15:28:34;1.33;;;0.90;;
4555;SDS011;2290;48.674;9.018;2022-09-09T15:31:04;2.00;;;1.00;;
4555;SDS011;2290;48.674;9.018;2022-09-09T15:33:32;2.23;;;1.20;;
4555;SDS011;2290;48.674;9.018;2022-09-09T15:35:58;2.10;;;1.00;;
4555;SDS011;2290;48.674;9.018;2022-09-09T15:38:24;1.83;;;1.00;;
4555;SDS011;2290;48.674;9.018;2022-09-09T15:40:54;1.13;;;0.87;;
4555;SDS011;2290;48.674;9.018;2022-09-09T15:43:20;1.27;;;0.90;;
4555;SDS011;2290;48.674;9.018;2022-09-09T15:45:49;1.07;;;0.80;;
4555;SDS011;2290;48.674;9.018;2022-09-09T15:48:23;1.40;;;0.90;;
4555;SDS011;2290;48.674;9.018;2022-09-09T15:51:03;2.83;;;0.90;;
4555;SDS011;2290;48.674;9.018;2022-09-09T15:53:29;1.17;;;0.80;;
4555;SDS011;2290;48.674;9.018;2022-09-09T15:55:57;3.00;;;1.10;;
4555;SDS011;2290;48.674;9.018;2022-09-09T15:58:23;1.40;;;0.90;;
4555;SDS011;2290;48.674;9.018;2022-09-09T16:00:48;2.07;;;0.90;;
4555;SDS011;2290;48.674;9.018;2022-09-09T16:03:14;2.60;;;0.80;;
4555;SDS011;2290;48.674;9.018;2022-09-09T16:05:40;1.57;;;0.97;;
4555;SDS011;2290;48.674;9.018;2022-09-09T16:08:06;1.60;;;0.90;;
4555;SDS011;2290;48.674;9.018;2022-09-09T16:10:32;2.03;;;0.90;;
4555;SDS011;2290;48.674;9.018;2022-09-09T16:12:57;1.33;;;0.90;;
4555;SDS011;2290;48.674;9.018;2022-09-09T16:15:23;1.53;;;1.43;;
4555;SDS011;2290;48.674;9.018;2022-09-09T16:17:49;1.50;;;1.00;;
4555;SDS011;2290;48.674;9.018;2022-09-09T16:20:18;1.60;;;1.13;;
4555;SDS011;2290;48.674;9.018;2022-09-09T16:22:44;1.40;;;0.90;;
4555;SDS011;2290;48.674;9.018;2022-09-09T16:25:09;1.07;;;0.83;;
4555;SDS011;2290;48.674;9.018;2022-09-09T16:27:35;1.00;;;0.70;;
4555;SDS011;2290;48.674;9.018;2022-09-09T16:30:01;1.43;;;0.80;;
4555;SDS011;2290;48.674;9.018;2022-09-09T16:32:26;0.90;;;0.80;;
4555;SDS011;2290;48.674;9.018;2022-09-09T16:34:52;1.20;;;0.90;;
4555;SDS011;2290;48.674;9.018;2022-09-09T16:37:18;1.10;;;0.90;;
4555;SDS011;2290;48.674;9.018;2022-09-09T16:39:44;1.20;;;0.90;;
4555;SDS011;2290;48.674;9.018;2022-09-09T16:42:09;0.93;;;0.70;;
4555;SDS011;2290;48.674;9.018;2022-09-09T16:44:35;0.90;;;0.70;;
4555;SDS011;2290;48.674;9.018;2022-09-09T16:47:01;2.60;;;0.90;;
4555;SDS011;2290;48.674;9.018;2022-09-09T16:49:26;0.90;;;0.80;;
4555;SDS011;2290;48.674;9.018;2022-09-09T16:51:53;1.30;;;0.90;;
4555;SDS011;2290;48.674;9.018;2022-09-09T16:54:19;0.97;;;0.87;;
4555;SDS011;2290;48.674;9.018;2022-09-09T16:56:46;1.67;;;0.87;;
4555;SDS011;2290;48.674;9.018;2022-09-09T16:59:14;1.00;;;0.80;;
4555;SDS011;2290;48.674;9.018;2022-09-09T17:01:41;1.00;;;0.77;;
4555;SDS011;2290;48.674;9.018;2022-09-09T17:04:13;2.10;;;0.83;;
4555;SDS011;2290;48.674;9.018;2022-09-09T17:06:47;0.90;;;0.70;;
4555;SDS011;2290;48.674;9.018;2022-09-09T17:09:14;1.17;;;0.90;;
4555;SDS011;2290;48.674;9.018;2022-09-09T17:11:40;1.37;;;0.80;;
4555;SDS011;2290;48.674;9.018;2022-09-09T17:14:07;1.40;;;1.17;;
4555;SDS011;2290;48.674;9.018;2022-09-09T17:16:34;1.00;;;0.83;;
4555;SDS011;2290;48.674;9.018;2022-09-09T17:19:01;2.83;;;0.80;;
4555;SDS011;2290;48.674;9.018;2022-09-09T17:21:29;1.10;;;0.70;;
4555;SDS011;2290;48.674;9.018;2022-09-09T17:23:55;1.00;;;0.70;;
4555;SDS011;2290;48.674;9.018;2022-09-09T17:26:23;1.10;;;0.80;;